Time;durP1;ratioP1;P1;durP2;ratioP2;P2;SDS_P1;SDS_P2;PMS_P1;PMS_P2;Temp;Humidity;BMP_temperature;BMP_pressure;BME280_temperature;BME280_humidity;BME280_pressure;Samples;Min_cycle;Max_cycle;Signal;HPM_P1;HPM_P2
2023/03/17 00:00:09;;;;;;;2.72;0.70;;;;;;;6.43;54.19;101264.59;5095670;28;20036;-65
2023/03/17 00:02:35;;;;;;;4.50;0.77;;;;;;;6.47;54.14;101262.41;5097328;28;20048;-65
2023/03/17 00:05:01;;;;;;;2.03;0.60;;;;;;;6.44;54.01;101258.22;5097419;28;20039;-65
2023/03/17 00:07:27;;;;;;;3.53;0.70;;;;;;;6.31;53.49;101228.44;5094444;28;20101;-64
2023/03/17 00:09:53;;;;;;;3.70;0.63;;;;;;;6.48;53.56;101248.88;5074606;28;20032;-65
2023/03/17 00:12:18;;;;;;;2.25;0.50;;;;;;;6.44;53.34;101236.84;5095860;28;20024;-65
2023/03/17 00:14:45;;;;;;;4.47;0.77;;;;;;;6.39;53.76;101249.88;5097233;28;20091;-65
2023/03/17 00:17:12;;;;;;;1.52;0.50;;;;;;;6.36;53.71;101247.50;5098580;28;20172;-65
2023/03/17 00:19:40;;;;;;;3.88;0.50;;;;;;;6.42;53.97;101249.53;5099214;28;20382;-65
2023/03/17 00:22:15;;;;;;;3.50;0.70;;;;;;;6.54;53.92;101261.59;5098948;28;20232;-65
2023/03/17 00:24:41;;;;;;;1.88;0.60;;;;;;;6.48;54.03;101250.72;5092805;28;20091;-65
2023/03/17 00:27:12;;;;;;;2.45;0.70;;;;;;;6.50;54.17;101246.91;5095355;28;20052;-65
2023/03/17 00:29:38;;;;;;;3.33;0.68;;;;;;;6.39;55.13;101241.00;5095366;28;20035;-65
2023/03/17 00:32:04;;;;;;;2.10;0.73;;;;;;;6.34;56.55;101230.78;5096060;28;20028;-65
2023/03/17 00:34:29;;;;;;;5.78;0.57;;;;;;;6.14;56.83;101191.97;5096032;28;20039;-65
2023/03/17 00:36:55;;;;;;;4.88;0.75;;;;;;;6.43;57.21;101227.16;5097006;28;20024;-65
2023/03/17 00:39:20;;;;;;;2.20;0.52;;;;;;;6.52;57.37;101214.63;5092407;28;20036;-65
2023/03/17 00:41:46;;;;;;;2.78;0.70;;;;;;;6.48;57.81;101221.31;5075516;28;20091;-65
2023/03/17 00:44:13;;;;;;;3.03;0.73;;;;;;;6.50;58.25;101200.63;5089575;28;20179;-65
2023/03/17 00:46:40;;;;;;;2.88;0.73;;;;;;;6.28;59.54;101196.69;5078400;28;20089;-65
2023/03/17 00:49:20;;;;;;;2.40;0.70;;;;;;;6.42;59.65;101188.03;5097662;28;20016;-65
2023/03/17 00:51:46;;;;;;;4.03;0.93;;;;;;;6.29;60.83;101199.22;5096639;28;20118;-65
2023/03/17 00:54:12;;;;;;;4.03;0.75;;;;;;;6.43;60.68;101197.75;5096063;28;20144;-65
2023/03/17 00:56:39;;;;;;;5.10;1.10;;;;;;;6.36;61.23;101186.03;5096147;28;20028;-65
2023/03/17 00:59:16;;;;;;;2.78;0.68;;;;;;;6.22;62.19;101168.75;5096578;28;20166;-65
2023/03/17 01:01:42;;;;;;;2.67;0.70;;;;;;;6.24;62.54;101166.78;5097221;28;20336;-65
2023/03/17 01:04:09;;;;;;;5.53;0.85;;;;;;;6.31;62.79;101170.47;5078691;28;20049;-65
2023/03/17 01:06:36;;;;;;;4.70;0.95;;;;;;;6.30;63.39;101170.66;5093521;28;20016;-65
2023/03/17 01:09:02;;;;;;;3.67;0.90;;;;;;;6.24;63.63;101153.41;5096865;28;20032;-65
2023/03/17 01:11:28;;;;;;;4.10;0.95;;;;;;;6.32;63.23;101152.59;5094934;28;20028;-65
2023/03/17 01:13:54;;;;;;;3.10;0.70;;;;;;;6.29;64.09;101161.81;5095174;28;20479;-64
2023/03/17 01:16:20;;;;;;;5.40;1.00;;;;;;;6.41;63.72;101145.44;5097325;28;20043;-65
2023/03/17 01:18:45;;;;;;;8.63;1.17;;;;;;;6.41;63.30;101132.09;5097302;28;20067;-65
2023/03/17 01:21:11;;;;;;;3.13;0.85;;;;;;;6.54;63.19;101146.66;5094918;28;20020;-64
2023/03/17 01:23:36;;;;;;;4.00;0.80;;;;;;;6.46;64.11;101140.47;5093825;28;20032;-65
2023/03/17 01:26:02;;;;;;;4.78;0.80;;;;;;;6.50;64.27;101139.97;5095672;28;20426;-65
2023/03/17 01:28:28;;;;;;;5.20;1.17;;;;;;;6.58;63.90;101142.63;5097440;28;20036;-65
2023/03/17 01:30:54;;;;;;;3.03;0.80;;;;;;;6.51;64.50;101136.28;5097332;28;20105;-65
2023/03/17 01:33:19;;;;;;;4.30;0.80;;;;;;;6.55;64.24;101126.91;5096641;28;20020;-65
2023/03/17 01:35:45;;;;;;;5.07;1.13;;;;;;;6.44;64.45;101105.03;5095428;28;20127;-65
2023/03/17 01:38:11;;;;;;;7.75;1.27;;;;;;;6.56;64.20;101125.94;5092877;28;20099;-64
2023/03/17 01:40:43;;;;;;;6.30;1.33;;;;;;;6.51;65.06;101122.91;5095755;28;20020;-65
2023/03/17 01:43:09;;;;;;;5.43;1.05;;;;;;;6.56;64.72;101125.94;5095484;28;20024;-65
2023/03/17 01:46:12;;;;;;;4.68;1.10;;;;;;;6.38;66.35;101125.22;5096971;28;20122;-65
2023/03/17 01:48:42;;;;;;;5.28;1.15;;;;;;;6.36;66.00;101111.22;5097070;28;20115;-65
2023/03/17 01:51:12;;;;;;;5.85;1.10;;;;;;;6.58;66.31;101115.06;5097862;28;20020;-65
2023/03/17 01:53:38;;;;;;;6.53;1.20;;;;;;;6.33;68.26;101112.38;5096429;28;20024;-65
2023/03/17 01:56:05;;;;;;;6.32;1.13;;;;;;;6.21;69.17;101102.13;5097276;28;20024;-65
2023/03/17 01:58:32;;;;;;;7.15;1.35;;;;;;;6.16;69.29;101091.09;5094533;28;20391;-65
2023/03/17 02:00:58;;;;;;;4.63;1.20;;;;;;;6.24;69.74;101105.31;5097145;28;20047;-65
2023/03/17 02:03:24;;;;;;;4.70;1.00;;;;;;;6.04;71.52;101094.06;5096693;28;20054;-65
2023/03/17 02:05:51;;;;;;;6.22;0.90;;;;;;;6.07;71.20;101096.44;5097092;28;20038;-65
2023/03/17 02:08:16;;;;;;;5.63;1.20;;;;;;;5.91;73.24;101107.03;5096059;28;20095;-65
2023/03/17 02:10:44;;;;;;;7.53;1.50;;;;;;;5.78;74.62;101090.63;5097904;28;20032;-65
2023/03/17 02:13:12;;;;;;;8.18;1.30;;;;;;;5.75;75.85;101085.59;5098394;28;20556;-65
2023/03/17 02:15:49;;;;;;;6.50;1.35;;;;;;;5.54;78.03;101078.84;5099716;28;20031;-65
2023/03/17 02:18:16;;;;;;;9.45;1.88;;;;;;;5.59;77.73;101071.16;5098488;28;20052;-65
2023/03/17 02:20:45;;;;;;;8.45;1.42;;;;;;;5.61;78.56;101077.19;5101522;28;20053;-65
2023/03/17 02:23:11;;;;;;;5.88;1.55;;;;;;;5.65;78.60;101069.69;5101888;28;20494;-65
2023/03/17 02:25:38;;;;;;;10.45;1.50;;;;;;;5.62;78.71;101065.50;5090885;28;20383;-65
2023/03/17 02:28:13;;;;;;;7.90;1.60;;;;;;;5.56;79.73;101058.16;5063580;28;20483;-65
2023/03/17 02:30:39;;;;;;;6.75;1.83;;;;;;;5.59;79.89;101055.16;5090318;28;20031;-65
2023/03/17 02:33:05;;;;;;;5.95;1.90;;;;;;;5.60;80.43;101066.69;5100958;28;20028;-65
2023/03/17 02:35:30;;;;;;;5.88;1.42;;;;;;;5.62;80.98;101049.50;5101288;28;20395;-65
2023/03/17 02:37:56;;;;;;;6.13;1.60;;;;;;;5.52;81.57;101022.09;5082387;28;20036;-65
2023/03/17 02:40:23;;;;;;;6.20;1.73;;;;;;;5.68;82.12;101044.53;5082356;28;20036;-65
2023/03/17 02:42:49;;;;;;;6.55;1.65;;;;;;;5.79;81.32;101041.53;5099725;28;20039;-65
2023/03/17 02:45:14;;;;;;;5.00;1.42;;;;;;;5.78;81.31;101035.38;5099863;28;20095;-65
2023/03/17 02:47:41;;;;;;;6.47;2.00;;;;;;;5.76;82.47;101039.19;5100624;28;20067;-65
2023/03/17 02:50:08;;;;;;;4.50;1.50;;;;;;;5.56;83.26;101018.13;5099247;28;20081;-65
2023/03/17 02:52:33;;;;;;;8.57;1.88;;;;;;;5.68;83.54;101031.16;5098566;28;20049;-65
2023/03/17 02:54:59;;;;;;;8.43;1.63;;;;;;;5.77;83.66;101030.22;5099829;28;20036;-65
2023/03/17 02:57:24;;;;;;;3.97;1.50;;;;;;;5.78;83.70;101021.19;5098374;28;20173;-65
2023/03/17 02:59:50;;;;;;;4.35;1.50;;;;;;;5.70;84.01;101008.66;5099730;28;20043;-65
2023/03/17 03:02:15;;;;;;;6.15;1.63;;;;;;;5.77;83.92;101004.34;5081969;28;20034;-65
2023/03/17 03:04:42;;;;;;;6.25;1.50;;;;;;;5.76;84.30;100985.78;5099930;28;20119;-65
2023/03/17 03:07:08;;;;;;;5.63;1.48;;;;;;;5.61;85.63;100990.94;5100255;28;20027;-65
2023/03/17 03:09:34;;;;;;;4.68;1.13;;;;;;;5.81;84.71;100991.50;5098624;28;20154;-65
2023/03/17 03:12:00;;;;;;;8.30;1.35;;;;;;;5.81;84.30;100995.00;5081560;28;20486;-64
2023/03/17 03:14:25;;;;;;;3.25;1.30;;;;;;;5.82;84.06;100993.16;5081688;28;20035;-65
2023/03/17 03:16:51;;;;;;;7.05;1.67;;;;;;;5.85;84.23;100982.16;5098187;28;20028;-65
2023/03/17 03:19:17;;;;;;;7.18;1.90;;;;;;;5.76;83.79;100975.13;5097792;28;20044;-65
2023/03/17 03:21:43;;;;;;;3.00;1.20;;;;;;;5.82;83.85;100979.81;5078701;28;20020;-65
2023/03/17 03:24:09;;;;;;;5.03;1.42;;;;;;;5.87;83.21;100981.00;5097347;28;20100;-65
2023/03/17 03:26:35;;;;;;;6.10;1.20;;;;;;;5.87;83.13;100967.63;5079777;28;20411;-65
2023/03/17 03:29:01;;;;;;;1.70;0.80;;;;;;;5.73;83.61;100938.91;5061793;28;20444;-65
2023/03/17 03:31:27;;;;;;;3.78;1.13;;;;;;;5.92;82.64;100967.13;5086014;28;20341;-65
2023/03/17 03:33:52;;;;;;;6.38;1.50;;;;;;;5.95;82.15;100974.03;5065086;28;20043;-64
2023/03/17 03:36:19;;;;;;;4.65;1.25;;;;;;;6.14;81.30;100976.38;5081381;28;20482;-65
2023/03/17 03:38:44;;;;;;;5.43;1.30;;;;;;;6.09;80.49;100960.88;5099249;28;20039;-65
2023/03/17 03:41:10;;;;;;;4.55;1.20;;;;;;;6.26;79.66;100977.72;5098048;28;20028;-65
2023/03/17 03:43:36;;;;;;;3.88;1.00;;;;;;;6.33;78.95;100967.22;5098720;28;20043;-65
2023/03/17 03:46:02;;;;;;;5.53;1.05;;;;;;;6.29;78.40;100960.50;5097449;28;20044;-64
2023/03/17 03:48:27;;;;;;;4.70;1.52;;;;;;;6.37;78.06;100971.22;5099146;28;20024;-65
2023/03/17 03:50:58;;;;;;;5.22;1.23;;;;;;;6.47;77.11;100963.03;5097987;28;20502;-65
2023/03/17 03:53:24;;;;;;;4.10;0.90;;;;;;;6.43;76.80;100965.19;5097685;28;20027;-65
2023/03/17 03:55:50;;;;;;;3.78;0.95;;;;;;;6.46;76.12;100962.19;5097556;28;20054;-65
2023/03/17 03:58:15;;;;;;;5.07;1.42;;;;;;;6.55;75.22;100960.31;5097887;28;20036;-65
2023/03/17 04:00:41;;;;;;;4.35;1.25;;;;;;;6.54;74.74;100977.38;5098020;28;20028;-65
2023/03/17 04:03:06;;;;;;;2.63;0.80;;;;;;;6.43;74.35;100946.50;5097757;28;20114;-65
2023/03/17 04:05:33;;;;;;;3.65;0.73;;;;;;;6.50;74.36;100970.72;5098835;28;20478;-65
2023/03/17 04:07:58;;;;;;;4.80;0.90;;;;;;;6.52;74.12;100966.88;5097608;28;20047;-65
2023/03/17 04:10:24;;;;;;;4.22;1.20;;;;;;;6.65;73.44;100965.50;5098208;28;20413;-65
2023/03/17 04:12:49;;;;;;;2.83;1.08;;;;;;;6.74;72.74;100962.63;5098629;28;20431;-65
2023/03/17 04:15:17;;;;;;;5.70;1.40;;;;;;;6.63;73.30;100952.31;5098069;28;20058;-65
2023/03/17 04:17:43;;;;;;;4.68;1.17;;;;;;;6.63;73.22;100946.13;5097084;28;20059;-65
2023/03/17 04:20:09;;;;;;;4.28;1.30;;;;;;;6.66;73.26;100951.16;5096701;28;20056;-65
2023/03/17 04:22:35;;;;;;;2.75;0.90;;;;;;;6.69;73.17;100935.59;5097977;28;20514;-65
2023/03/17 04:25:01;;;;;;;3.35;1.13;;;;;;;6.54;73.28;100932.75;5080146;28;20059;-65
2023/03/17 04:27:27;;;;;;;5.35;1.45;;;;;;;6.57;74.52;100936.94;5079976;28;20046;-65
2023/03/17 04:29:52;;;;;;;4.68;1.30;;;;;;;6.57;74.89;100953.81;5097738;28;20036;-65
2023/03/17 04:32:18;;;;;;;4.47;1.30;;;;;;;6.47;75.09;100923.75;5063310;28;20543;-65
2023/03/17 04:34:43;;;;;;;4.03;1.30;;;;;;;6.30;76.56;100914.94;5097275;28;20042;-65
2023/03/17 04:37:09;;;;;;;5.10;1.58;;;;;;;6.29;77.60;100928.44;5079889;28;20592;-65
2023/03/17 04:39:35;;;;;;;5.88;1.70;;;;;;;6.27;78.28;100933.97;5079882;28;20111;-65
2023/03/17 04:42:01;;;;;;;4.60;1.60;;;;;;;6.22;79.56;100944.31;5097314;28;20023;-65
2023/03/17 04:44:26;;;;;;;4.53;1.30;;;;;;;6.11;81.02;100933.97;5093999;28;20036;-65
2023/03/17 04:46:52;;;;;;;4.82;1.48;;;;;;;6.04;81.02;100939.13;5096398;28;20036;-65
2023/03/17 04:49:17;;;;;;;5.05;1.60;;;;;;;5.86;82.65;100911.72;5097531;28;20095;-65
2023/03/17 04:51:43;;;;;;;4.00;1.95;;;;;;;5.93;83.24;100923.47;5079695;28;20040;-65
2023/03/17 04:54:08;;;;;;;7.30;1.90;;;;;;;5.90;83.22;100905.06;5099471;28;20035;-65
2023/03/17 04:56:35;;;;;;;6.43;1.55;;;;;;;5.81;84.08;100906.88;5097085;28;20529;-66
2023/03/17 04:59:00;;;;;;;3.63;1.38;;;;;;;5.72;85.11;100907.84;5096179;28;20032;-66
2023/03/17 05:01:26;;;;;;;8.93;2.00;;;;;;;5.53;85.13;100874.31;5098196;28;20036;-65
2023/03/17 05:03:52;;;;;;;8.82;1.98;;;;;;;5.62;85.96;100892.00;5095889;28;20628;-65
2023/03/17 05:06:17;;;;;;;6.82;2.15;;;;;;;5.63;86.64;100885.69;5097706;28;20121;-65
2023/03/17 05:08:43;;;;;;;6.22;1.88;;;;;;;5.75;86.03;100893.34;5096534;28;20031;-65
2023/03/17 05:11:10;;;;;;;5.03;1.77;;;;;;;5.71;86.59;100881.34;5096045;28;20031;-65
2023/03/17 05:13:36;;;;;;;5.13;1.90;;;;;;;5.80;85.91;100891.03;5077389;28;20028;-64
2023/03/17 05:16:02;;;;;;;5.00;1.83;;;;;;;5.72;86.92;100891.84;5078340;28;20036;-65
2023/03/17 05:18:27;;;;;;;4.10;1.73;;;;;;;5.74;87.08;100887.19;5083291;28;20503;-64
2023/03/17 05:20:53;;;;;;;7.82;2.20;;;;;;;5.65;87.72;100889.00;5079257;28;20050;-64
2023/03/17 05:23:19;;;;;;;6.97;2.42;;;;;;;5.47;89.14;100868.81;5096370;28;20077;-65
2023/03/17 05:25:47;;;;;;;5.40;2.05;;;;;;;5.70;88.06;100871.66;5096022;28;20491;-65
2023/03/17 05:28:13;;;;;;;6.25;2.30;;;;;;;5.68;88.72;100879.81;5097760;28;20053;-70
2023/03/17 05:30:38;;;;;;;5.13;1.98;;;;;;;5.67;89.05;100880.84;5095894;28;20039;-65
2023/03/17 05:33:04;;;;;;;7.22;2.35;;;;;;;5.76;88.41;100857.63;5096864;28;20028;-65
2023/03/17 05:35:29;;;;;;;4.95;2.13;;;;;;;5.78;88.72;100858.31;5097547;28;20211;-64
2023/03/17 05:37:55;;;;;;;5.05;1.38;;;;;;;5.56;89.68;100839.28;5096670;28;20032;-65
2023/03/17 05:40:22;;;;;;;7.95;2.10;;;;;;;5.71;89.83;100846.63;5080551;28;20381;-66
2023/03/17 05:42:48;;;;;;;7.28;1.95;;;;;;;5.78;88.38;100835.09;5087504;28;20039;-65
2023/03/17 05:45:17;;;;;;;4.57;1.80;;;;;;;5.83;88.69;100840.78;5090678;28;20035;-65
2023/03/17 05:47:43;;;;;;;4.88;1.92;;;;;;;5.82;88.85;100847.13;5085140;28;20021;-65
2023/03/17 05:50:10;;;;;;;8.75;2.30;;;;;;;5.88;87.93;100841.13;5093892;28;20027;-66
2023/03/17 05:52:36;;;;;;;4.13;1.70;;;;;;;5.91;87.32;100837.28;5101814;28;20051;-65
2023/03/17 05:55:03;;;;;;;6.68;1.90;;;;;;;6.09;86.58;100843.31;5100932;28;20028;-65
2023/03/17 05:57:29;;;;;;;6.95;1.90;;;;;;;5.97;87.11;100850.00;5101221;28;20024;-65
2023/03/17 05:59:54;;;;;;;6.18;1.95;;;;;;;6.11;86.04;100841.28;5098283;28;20554;-65
2023/03/17 06:02:19;;;;;;;2.55;1.33;;;;;;;5.93;86.49;100831.78;5079776;28;20136;-65
2023/03/17 06:04:45;;;;;;;5.82;1.60;;;;;;;5.74;86.15;100785.72;5097579;28;20070;-65
2023/03/17 06:07:11;;;;;;;5.65;1.80;;;;;;;5.96;86.04;100823.44;5098081;28;20024;-65
2023/03/17 06:09:37;;;;;;;10.15;2.72;;;;;;;6.21;85.13;100840.28;5099030;28;20028;-65
2023/03/17 06:12:03;;;;;;;4.70;1.83;;;;;;;6.16;85.32;100837.28;5101134;28;20031;-65
2023/03/17 06:14:29;;;;;;;5.53;2.03;;;;;;;6.24;84.61;100834.59;5098784;28;20028;-65
2023/03/17 06:16:54;;;;;;;4.90;1.75;;;;;;;6.06;84.46;100819.63;5098700;28;20112;-65
2023/03/17 06:19:20;;;;;;;8.13;1.90;;;;;;;6.24;84.55;100846.13;5094950;28;20048;-65
2023/03/17 06:21:46;;;;;;;7.85;1.80;;;;;;;6.25;84.07;100842.44;5081443;28;20030;-65
2023/03/17 06:24:11;;;;;;;7.88;2.47;;;;;;;6.37;83.83;100858.13;5093511;28;20029;-65
2023/03/17 06:26:37;;;;;;;8.20;2.20;;;;;;;6.36;83.99;100857.31;5079440;28;20807;-65
2023/03/17 06:29:04;;;;;;;7.57;2.33;;;;;;;6.30;83.76;100852.63;5098965;28;20024;-65
2023/03/17 06:31:30;;;;;;;4.97;1.77;;;;;;;6.31;83.46;100831.06;5099678;28;20024;-65
2023/03/17 06:33:56;;;;;;;5.82;2.78;;;;;;;6.32;83.02;100821.22;5099068;28;20020;-65
2023/03/17 06:36:22;;;;;;;6.35;2.50;;;;;;;6.49;82.40;100846.06;5082796;28;20028;-65
2023/03/17 06:38:47;;;;;;;9.85;2.65;;;;;;;6.45;82.24;100820.69;5100881;28;20028;-65
2023/03/17 06:41:13;;;;;;;6.85;2.83;;;;;;;6.49;82.23;100838.91;5100721;28;20040;-66
2023/03/17 06:43:39;;;;;;;6.68;2.83;;;;;;;6.42;82.49;100831.72;5100262;28;20089;-65
2023/03/17 06:46:06;;;;;;;7.13;2.65;;;;;;;6.41;82.71;100852.25;5102495;28;20387;-65
2023/03/17 06:48:32;;;;;;;9.63;2.65;;;;;;;6.45;82.93;100861.59;5104305;28;20043;-65
2023/03/17 06:50:58;;;;;;;9.02;2.83;;;;;;;6.50;82.60;100861.09;5105711;28;20028;-65
2023/03/17 06:53:24;;;;;;;10.00;2.63;;;;;;;6.50;83.12;100840.56;5103178;28;20412;-65
2023/03/17 06:55:50;;;;;;;6.40;2.38;;;;;;;6.36;84.09;100833.25;5101057;28;20051;-65
2023/03/17 06:58:15;;;;;;;6.70;2.60;;;;;;;6.35;84.76;100842.25;5101194;28;20432;-65
2023/03/17 07:00:42;;;;;;;7.63;3.00;;;;;;;5.90;85.38;100779.53;5102909;28;20104;-65
2023/03/17 07:03:08;;;;;;;9.88;3.42;;;;;;;6.36;85.01;100827.91;5102532;28;20049;-65
2023/03/17 07:05:34;;;;;;;6.45;2.13;;;;;;;6.13;85.99;100803.75;5103344;28;20028;-65
2023/03/17 07:07:59;;;;;;;6.57;2.90;;;;;;;6.23;85.94;100801.72;5085960;28;20035;-65
2023/03/17 07:10:25;;;;;;;9.15;3.08;;;;;;;6.28;85.83;100817.22;5105552;28;20024;-65
2023/03/17 07:12:50;;;;;;;8.02;2.95;;;;;;;6.18;87.07;100816.56;5104457;28;20024;-65
2023/03/17 07:15:17;;;;;;;9.18;2.90;;;;;;;6.16;87.26;100803.41;5100386;28;20024;-65
2023/03/17 07:17:45;;;;;;;9.50;2.90;;;;;;;6.14;87.47;100804.56;5099172;28;20494;-65
2023/03/17 07:20:12;;;;;;;8.07;3.03;;;;;;;6.11;88.03;100819.91;5096568;28;20143;-65
2023/03/17 07:22:38;;;;;;;15.50;3.20;;;;;;;6.22;87.35;100802.69;5103868;28;20088;-65
2023/03/17 07:25:04;;;;;;;10.82;3.00;;;;;;;6.29;86.99;100800.16;5098227;28;20569;-65
2023/03/17 07:27:30;;;;;;;8.73;2.92;;;;;;;6.39;86.93;100808.00;5095864;28;20064;-65
2023/03/17 07:29:55;;;;;;;9.32;2.92;;;;;;;6.38;86.82;100801.81;5099313;28;20401;-64
2023/03/17 07:32:21;;;;;;;8.20;2.92;;;;;;;6.40;87.40;100796.31;5102751;28;20020;-65
2023/03/17 07:34:47;;;;;;;6.25;2.83;;;;;;;6.44;86.90;100774.41;5097046;28;20035;-65
2023/03/17 07:37:13;;;;;;;9.30;3.25;;;;;;;6.51;87.19;100788.75;5098701;28;20016;-65
2023/03/17 07:39:38;;;;;;;7.53;3.28;;;;;;;6.52;87.44;100790.44;5100216;28;20020;-65
2023/03/17 07:42:04;;;;;;;7.30;3.20;;;;;;;6.53;87.24;100785.91;5101781;28;20044;-65
2023/03/17 07:44:31;;;;;;;8.75;3.22;;;;;;;6.54;86.61;100758.16;5102499;28;20077;-65
2023/03/17 07:46:56;;;;;;;11.77;4.05;;;;;;;6.59;86.75;100785.22;5085651;28;20032;-65
2023/03/17 07:49:22;;;;;;;7.78;3.00;;;;;;;6.58;86.55;100771.00;5102542;28;20051;-65
2023/03/17 07:51:48;;;;;;;8.85;3.53;;;;;;;6.66;86.80;100775.50;5084087;28;20039;-66
2023/03/17 07:54:14;;;;;;;9.45;3.20;;;;;;;6.60;87.40;100778.88;5101336;28;20020;-64
2023/03/17 07:56:40;;;;;;;8.15;3.20;;;;;;;6.55;87.13;100779.38;5103124;28;20028;-65
2023/03/17 07:59:09;;;;;;;13.70;3.67;;;;;;;6.67;86.78;100779.00;5099676;28;20119;-64
2023/03/17 08:01:35;;;;;;;10.48;3.40;;;;;;;6.61;86.79;100774.34;5101189;28;20024;-64
2023/03/17 08:04:01;;;;;;;9.43;3.40;;;;;;;6.56;86.56;100766.84;5102109;28;20156;-65
2023/03/17 08:06:27;;;;;;;8.55;3.40;;;;;;;6.63;85.95;100767.81;5099702;28;20103;-65
2023/03/17 08:08:53;;;;;;;9.45;3.13;;;;;;;6.72;85.82;100780.16;5097402;28;20055;-65
2023/03/17 08:11:19;;;;;;;11.80;3.25;;;;;;;6.71;86.02;100772.28;5096853;28;20035;-66
2023/03/17 08:13:45;;;;;;;8.93;3.45;;;;;;;6.89;85.03;100755.97;5097434;28;20042;-65
2023/03/17 08:16:11;;;;;;;10.50;3.78;;;;;;;6.86;85.08;100762.53;5076734;28;20398;-65
2023/03/17 08:18:37;;;;;;;12.93;4.05;;;;;;;6.99;84.36;100762.78;5092173;28;20507;-65
2023/03/17 08:21:03;;;;;;;8.63;3.30;;;;;;;6.94;84.66;100757.13;5075770;28;20076;-66
2023/03/17 08:23:29;;;;;;;8.25;3.53;;;;;;;7.03;84.08;100758.75;5079235;28;20098;-65
2023/03/17 08:26:00;;;;;;;13.18;4.05;;;;;;;7.05;84.05;100753.19;5078361;28;20370;-65
2023/03/17 08:28:26;;;;;;;10.35;3.40;;;;;;;7.03;84.02;100763.25;5079354;28;20088;-65
2023/03/17 08:30:53;;;;;;;12.00;3.42;;;;;;;6.99;83.89;100783.34;5079652;28;20115;-65
2023/03/17 08:33:19;;;;;;;9.48;3.63;;;;;;;6.85;83.91;100755.50;5082638;28;20014;-65
2023/03/17 08:35:45;;;;;;;6.60;3.10;;;;;;;6.81;84.25;100747.00;5098655;28;20119;-65
2023/03/17 08:38:11;;;;;;;11.60;3.88;;;;;;;6.92;83.93;100753.81;5099533;28;20505;-65
2023/03/17 08:40:38;;;;;;;11.90;4.10;;;;;;;6.99;83.81;100757.44;5082844;28;20038;-65
2023/03/17 08:43:05;;;;;;;10.10;4.00;;;;;;;7.06;83.65;100763.72;5100166;28;20059;-65
2023/03/17 08:45:30;;;;;;;11.13;3.78;;;;;;;7.20;83.27;100764.81;5101269;28;20028;-67
2023/03/17 08:47:56;;;;;;;10.07;3.97;;;;;;;7.15;83.33;100752.97;5081498;28;20020;-65
2023/03/17 08:50:23;;;;;;;8.57;3.95;;;;;;;7.07;83.37;100746.66;5101699;28;20051;-65
2023/03/17 08:52:50;;;;;;;8.00;3.42;;;;;;;7.02;83.68;100742.88;5099547;28;20035;-65
2023/03/17 08:55:16;;;;;;;9.68;3.97;;;;;;;7.04;83.75;100752.38;5097770;28;20051;-65
2023/03/17 08:57:43;;;;;;;10.32;3.80;;;;;;;6.89;84.08;100743.47;5101830;28;20024;-65
2023/03/17 09:00:10;;;;;;;16.92;4.93;;;;;;;7.00;83.78;100739.53;5083039;28;20040;-65
2023/03/17 09:02:38;;;;;;;10.05;3.60;;;;;;;7.04;83.58;100741.66;5099012;28;20096;-65
2023/03/17 09:05:05;;;;;;;7.15;2.88;;;;;;;6.91;84.62;100730.72;5102670;28;20032;-66
2023/03/17 09:07:31;;;;;;;9.90;3.88;;;;;;;6.76;85.67;100748.53;5081285;28;20067;-66
2023/03/17 09:09:58;;;;;;;11.60;4.03;;;;;;;6.87;84.94;100745.47;5090849;28;20396;-65
2023/03/17 09:12:23;;;;;;;12.13;4.10;;;;;;;6.99;84.68;100738.72;5096135;28;20032;-65
2023/03/17 09:14:49;;;;;;;8.27;4.22;;;;;;;6.85;85.62;100728.75;5095439;28;20032;-65
2023/03/17 09:17:15;;;;;;;9.57;4.00;;;;;;;6.88;85.75;100728.41;5098578;28;20024;-65
2023/03/17 09:19:40;;;;;;;11.45;4.30;;;;;;;6.96;86.17;100739.06;5100654;28;20052;-65
2023/03/17 09:22:06;;;;;;;13.15;4.50;;;;;;;6.98;86.60;100731.66;5099754;28;20042;-66
2023/03/17 09:24:32;;;;;;;15.25;4.82;;;;;;;6.94;86.85;100735.72;5100152;28;20043;-65
2023/03/17 09:26:58;;;;;;;12.82;4.43;;;;;;;6.92;87.34;100723.53;5079752;28;20024;-66
2023/03/17 09:29:25;;;;;;;11.95;4.35;;;;;;;7.01;87.68;100731.31;5098191;28;20039;-65
2023/03/17 09:31:51;;;;;;;14.13;4.90;;;;;;;7.11;87.55;100743.63;5099148;28;20441;-66
2023/03/17 09:34:17;;;;;;;11.88;4.57;;;;;;;7.01;87.72;100725.97;5099052;28;20031;-66
2023/03/17 09:36:42;;;;;;;10.13;4.40;;;;;;;6.92;88.83;100716.34;5097696;28;20490;-65
2023/03/17 09:39:08;;;;;;;12.95;5.15;;;;;;;7.06;88.35;100723.59;5092012;28;20035;-65
2023/03/17 09:41:47;;;;;;;11.63;4.97;;;;;;;7.07;88.23;100719.09;5099235;28;20043;-66
2023/03/17 09:44:27;;;;;;;9.32;4.40;;;;;;;7.01;88.87;100725.97;5099146;28;20048;-65
2023/03/17 09:47:03;;;;;;;10.25;4.93;;;;;;;7.05;88.97;100721.94;5094145;28;20020;-66
2023/03/17 09:49:44;;;;;;;12.38;5.20;;;;;;;7.19;88.86;100727.53;5083116;28;20020;-66
2023/03/17 09:52:17;;;;;;;10.00;4.43;;;;;;;7.09;89.08;100727.78;5090516;28;20039;-65
2023/03/17 09:54:45;;;;;;;11.20;4.93;;;;;;;7.14;88.84;100724.56;5079397;28;20540;-66
2023/03/17 09:57:23;;;;;;;11.57;4.85;;;;;;;7.18;88.93;100712.47;5107900;28;20032;-65
2023/03/17 10:00:17;;;;;;;12.70;5.13;;;;;;;7.23;88.80;100699.41;5079414;28;20025;-65
2023/03/17 10:02:43;;;;;;;14.73;4.97;;;;;;;7.13;89.06;100709.50;5075118;28;20032;-65
2023/03/17 10:05:20;;;;;;;10.95;5.20;;;;;;;7.14;89.87;100698.63;5077816;28;20028;-65
2023/03/17 10:08:13;;;;;;;12.35;5.50;;;;;;;7.28;89.28;100697.00;5077455;28;20028;-65
2023/03/17 10:10:47;;;;;;;11.43;4.60;;;;;;;7.13;89.81;100669.38;5076261;28;20434;-65
2023/03/17 10:13:41;;;;;;;11.77;4.88;;;;;;;7.47;88.48;100677.75;5084587;28;20087;-65
2023/03/17 10:16:29;;;;;;;11.90;5.25;;;;;;;7.44;89.53;100685.31;5061863;28;20056;-65
2023/03/17 10:19:01;;;;;;;11.38;4.88;;;;;;;7.59;88.39;100682.69;5093916;28;20140;-65
2023/03/17 10:21:40;;;;;;;8.40;4.57;;;;;;;7.65;87.82;100674.75;5095299;28;20054;-65
2023/03/17 10:24:07;;;;;;;10.70;4.60;;;;;;;7.81;87.44;100683.63;5095381;28;20020;-65
2023/03/17 10:26:43;;;;;;;10.05;4.43;;;;;;;7.68;87.75;100677.06;5096241;28;20491;-65
2023/03/17 10:29:14;;;;;;;7.47;3.78;;;;;;;7.64;88.48;100675.75;5097090;28;20019;-66
2023/03/17 10:31:39;;;;;;;9.90;4.13;;;;;;;7.79;87.22;100683.81;5096080;28;20054;-65
2023/03/17 10:34:17;;;;;;;12.02;4.25;;;;;;;7.90;86.80;100661.09;5098682;28;20123;-65
2023/03/17 10:36:50;;;;;;;10.90;4.63;;;;;;;7.90;86.46;100653.03;5099971;28;20077;-65
2023/03/17 10:39:21;;;;;;;9.82;4.60;;;;;;;7.76;87.48;100662.75;5102087;28;20035;-65
2023/03/17 10:41:55;;;;;;;9.63;4.28;;;;;;;7.95;86.02;100656.84;5101273;28;20031;-66
2023/03/17 10:44:49;;;;;;;7.03;4.55;;;;;;;8.04;85.93;100644.16;5100487;28;20039;-66
2023/03/17 10:47:39;;;;;;;12.50;4.65;;;;;;;8.07;86.00;100653.69;5097009;28;20035;-65
2023/03/17 10:50:14;;;;;;;9.15;4.05;;;;;;;8.20;85.04;100645.81;5101519;28;20031;-65
2023/03/17 10:52:41;;;;;;;9.23;4.20;;;;;;;8.10;85.15;100646.09;5098934;28;20692;-66
2023/03/17 10:55:09;;;;;;;10.65;4.55;;;;;;;8.27;84.13;100646.72;5102062;28;20065;-65
2023/03/17 10:57:37;;;;;;;9.50;3.90;;;;;;;8.20;84.05;100645.81;5103744;28;20016;-66
2023/03/17 11:00:15;;;;;;;10.85;4.40;;;;;;;8.23;83.59;100646.25;5101558;28;20038;-65
2023/03/17 11:02:59;;;;;;;10.25;4.32;;;;;;;8.43;82.68;100654.56;5103708;28;20036;-66
2023/03/17 11:05:27;;;;;;;9.65;4.60;;;;;;;8.55;82.08;100667.50;5101268;28;20052;-66
2023/03/17 11:08:17;;;;;;;13.68;4.88;;;;;;;8.72;81.88;100666.25;5103427;28;20432;-65
2023/03/17 11:10:43;;;;;;;9.40;4.45;;;;;;;8.78;80.60;100665.47;5093930;28;20048;-66
2023/03/17 11:13:14;;;;;;;7.93;4.15;;;;;;;8.90;80.67;100658.56;5081701;28;20024;-66
2023/03/17 11:15:51;;;;;;;9.43;4.45;;;;;;;8.76;79.86;100640.69;5093630;28;20028;-66
2023/03/17 11:18:29;;;;;;;8.50;4.20;;;;;;;8.80;79.78;100623.19;5094088;28;20096;-66
2023/03/17 11:21:06;;;;;;;15.75;4.70;;;;;;;8.97;79.50;100652.44;5084735;28;20468;-65
2023/03/17 11:24:03;;;;;;;10.45;4.32;;;;;;;9.02;78.76;100650.03;5080207;28;20511;-64
2023/03/17 11:26:54;;;;;;;12.38;4.82;;;;;;;8.98;77.90;100640.69;5081994;28;20149;-65
2023/03/17 11:29:25;;;;;;;9.60;4.13;;;;;;;8.96;78.43;100630.13;5081904;28;20031;-65
2023/03/17 11:32:00;;;;;;;13.10;4.60;;;;;;;9.02;77.79;100634.75;5079964;28;20254;-66
2023/03/17 11:34:32;;;;;;;11.48;3.92;;;;;;;8.93;77.68;100642.09;5080641;28;20391;-65